createdAt,value
2022-10-09T00:00:50.184Z,1020.25
2022-10-09T00:01:50.206Z,1020.25
2022-10-09T00:02:50.617Z,1020.24
2022-10-09T00:04:50.359Z,1020.26
2022-10-09T00:05:50.302Z,1020.22
2022-10-09T00:06:50.322Z,1020.24
2022-10-09T00:07:50.347Z,1020.25
2022-10-09T00:08:50.370Z,1020.23
2022-10-09T00:09:50.393Z,1020.21
2022-10-09T00:10:50.420Z,1020.24
2022-10-09T00:11:50.442Z,1020.24
2022-10-09T00:12:50.819Z,1020.23
2022-10-09T00:13:50.512Z,1020.28
2022-10-09T00:14:50.510Z,1020.26
2022-10-09T00:15:50.536Z,1020.27
2022-10-09T00:16:50.660Z,1020.29
2022-10-09T00:17:50.582Z,1020.28
2022-10-09T00:18:50.607Z,1020.27
2022-10-09T00:19:50.629Z,1020.25
2022-10-09T00:20:50.651Z,1020.24
2022-10-09T00:21:50.677Z,1020.30
2022-10-09T00:22:51.005Z,1020.34
2022-10-09T00:23:50.723Z,1020.34
2022-10-09T00:24:50.745Z,1020.32
2022-10-09T00:25:50.769Z,1020.29
2022-10-09T00:26:50.791Z,1020.27
2022-10-09T00:27:50.817Z,1020.23
2022-10-09T00:28:50.877Z,1020.19
2022-10-09T00:29:50.882Z,1020.27
2022-10-09T00:30:50.936Z,1020.23
2022-10-09T00:31:50.913Z,1020.26
2022-10-09T00:32:51.172Z,1020.32
2022-10-09T00:33:50.956Z,1020.24
2022-10-09T00:34:50.978Z,1020.25
2022-10-09T00:35:51.003Z,1020.29
2022-10-09T00:36:51.026Z,1020.29
2022-10-09T00:37:51.051Z,1020.30
2022-10-09T00:38:51.070Z,1020.23
2022-10-09T00:39:53.921Z,1020.22
2022-10-09T00:40:53.752Z,1020.22
2022-10-09T00:41:51.142Z,1020.24
2022-10-09T00:42:51.730Z,1020.22
2022-10-09T00:43:51.188Z,1020.23
2022-10-09T00:44:51.209Z,1020.22
2022-10-09T00:45:51.291Z,1020.21
2022-10-09T00:46:51.256Z,1020.17
2022-10-09T00:47:51.281Z,1020.19
2022-10-09T00:48:51.303Z,1020.20
2022-10-09T00:49:51.330Z,1020.21
2022-10-09T00:50:51.349Z,1020.19
2022-10-09T00:51:51.381Z,1020.22
2022-10-09T00:52:51.704Z,1020.24
2022-10-09T00:53:51.472Z,1020.22
2022-10-09T00:54:51.444Z,1020.23
2022-10-09T00:55:51.472Z,1020.21
2022-10-09T00:56:51.491Z,1020.20
2022-10-09T00:57:51.518Z,1020.23
2022-10-09T00:58:51.536Z,1020.23
2022-10-09T00:59:51.561Z,1020.18
2022-10-09T01:00:51.586Z,1020.21
2022-10-09T01:01:51.761Z,1020.17
2022-10-09T01:02:52.283Z,1020.19
2022-10-09T01:03:51.655Z,1020.15
2022-10-09T01:04:51.677Z,1020.21
2022-10-09T01:05:51.702Z,1020.20
2022-10-09T01:06:51.724Z,1020.24
2022-10-09T01:07:51.748Z,1020.23
2022-10-09T01:08:51.770Z,1020.19
2022-10-09T01:09:51.794Z,1020.25
2022-10-09T01:10:51.816Z,1020.25
2022-10-09T01:11:51.841Z,1020.27
2022-10-09T01:12:52.069Z,1020.27
2022-10-09T01:13:51.988Z,1020.25
2022-10-09T01:14:51.911Z,1020.25
2022-10-09T01:15:51.956Z,1020.25
2022-10-09T01:16:51.957Z,1020.26
2022-10-09T01:17:51.999Z,1020.24
2022-10-09T01:18:52.004Z,1020.24
2022-10-09T01:19:52.027Z,1020.27
2022-10-09T01:20:52.050Z,1020.28
2022-10-09T01:21:52.075Z,1020.25
2022-10-09T01:22:52.098Z,1020.26
2022-10-09T01:23:52.119Z,1020.26
2022-10-09T01:24:52.142Z,1020.19
2022-10-09T01:25:52.168Z,1020.24
2022-10-09T01:26:52.189Z,1020.25
2022-10-09T01:27:52.214Z,1020.22
2022-10-09T01:28:52.237Z,1020.23
2022-10-09T01:29:52.262Z,1020.17
2022-10-09T01:30:52.339Z,1020.19
2022-10-09T01:31:52.307Z,1020.21
2022-10-09T01:32:52.328Z,1020.20
2022-10-09T01:33:52.374Z,1020.20
2022-10-09T01:34:52.374Z,1020.18
2022-10-09T01:35:52.399Z,1020.17
2022-10-09T01:36:52.421Z,1020.14
2022-10-09T01:37:52.447Z,1020.10
2022-10-09T01:38:52.467Z,1020.15
2022-10-09T01:39:52.501Z,1020.08
2022-10-09T01:40:52.513Z,1020.09
2022-10-09T01:41:52.539Z,1020.11
2022-10-09T01:42:52.559Z,1020.07
2022-10-09T01:43:52.587Z,1020.15
2022-10-09T01:44:52.607Z,1020.09
2022-10-09T01:45:52.649Z,1020.12
2022-10-09T01:46:52.654Z,1020.14
2022-10-09T01:47:52.678Z,1020.06
2022-10-09T01:48:52.699Z,1020.14
2022-10-09T01:49:52.776Z,1020.09
2022-10-09T01:50:52.745Z,1020.11
2022-10-09T01:51:52.771Z,1020.08
2022-10-09T01:52:53.200Z,1020.09
2022-10-09T01:53:52.816Z,1020.07
2022-10-09T01:54:52.889Z,1020.10
2022-10-09T01:55:52.913Z,1020.10
2022-10-09T01:56:52.936Z,1020.08
2022-10-09T01:57:52.909Z,1020.05
2022-10-09T01:58:52.931Z,1020.05
2022-10-09T01:59:52.955Z,1020.00
2022-10-09T02:00:52.977Z,1020.03
2022-10-09T02:01:53.098Z,1020.03
2022-10-09T02:02:53.397Z,1020.03
2022-10-09T02:03:53.049Z,1020.03
2022-10-09T02:04:53.078Z,1020.06
2022-10-09T02:05:53.112Z,1019.99
2022-10-09T02:06:53.114Z,1019.98
2022-10-09T02:07:53.140Z,1019.98
2022-10-09T02:08:53.163Z,1020.00
2022-10-09T02:09:53.185Z,1020.01
2022-10-09T02:10:53.205Z,1020.02
2022-10-09T02:11:53.231Z,1020.04
2022-10-09T02:12:53.252Z,1019.99
2022-10-09T02:13:53.277Z,1019.98
2022-10-09T02:14:53.297Z,1019.97
2022-10-09T02:15:53.421Z,1020.00
2022-10-09T02:16:53.348Z,1019.99
2022-10-09T02:17:53.369Z,1019.99
2022-10-09T02:18:53.391Z,1019.98
2022-10-09T02:19:53.416Z,1019.99
2022-10-09T02:20:53.438Z,1019.97
2022-10-09T02:21:54.563Z,1019.99
2022-10-09T02:22:53.483Z,1020.02
2022-10-09T02:23:53.507Z,1020.01
2022-10-09T02:24:53.529Z,1019.99
2022-10-09T02:25:53.553Z,1019.95
2022-10-09T02:26:53.577Z,1020.01
2022-10-09T02:27:53.599Z,1020.01
2022-10-09T02:28:53.678Z,1020.00
2022-10-09T02:29:53.648Z,1019.98
2022-10-09T02:30:53.716Z,1019.96
2022-10-09T02:31:53.695Z,1019.94
2022-10-09T02:32:53.714Z,1019.93
2022-10-09T02:33:53.739Z,1019.89
2022-10-09T02:34:53.758Z,1019.88
2022-10-09T02:35:53.783Z,1019.89
2022-10-09T02:36:53.806Z,1019.90
2022-10-09T02:37:53.848Z,1019.93
2022-10-09T02:38:53.851Z,1019.90
2022-10-09T02:39:53.875Z,1019.91
2022-10-09T02:40:53.898Z,1019.94
2022-10-09T02:41:53.922Z,1019.95
2022-10-09T02:42:53.945Z,1019.88
2022-10-09T02:43:53.968Z,1019.94
2022-10-09T02:44:53.990Z,1020.00
2022-10-09T02:45:54.013Z,1020.00
2022-10-09T02:46:54.094Z,1020.02
2022-10-09T02:47:54.060Z,1019.96
2022-10-09T02:48:54.080Z,1019.99
2022-10-09T02:49:54.106Z,1019.96
2022-10-09T02:50:54.126Z,1019.94
2022-10-09T02:51:54.153Z,1019.98
2022-10-09T02:52:54.171Z,1019.93
2022-10-09T02:53:54.213Z,1019.95
2022-10-09T02:54:54.217Z,1020.00
2022-10-09T02:55:54.243Z,1019.95
2022-10-09T02:56:54.263Z,1020.02
2022-10-09T02:57:54.289Z,1019.96
2022-10-09T02:58:54.309Z,1019.99
2022-10-09T02:59:54.334Z,1019.93
2022-10-09T03:00:54.355Z,1019.94
2022-10-09T03:01:54.507Z,1020.00
2022-10-09T03:02:57.048Z,1019.95
2022-10-09T03:03:54.425Z,1019.91
2022-10-09T03:04:54.447Z,1019.89
2022-10-09T03:05:54.470Z,1019.92
2022-10-09T03:06:54.492Z,1019.89
2022-10-09T03:07:54.516Z,1019.92
2022-10-09T03:08:54.539Z,1019.90
2022-10-09T03:09:54.583Z,1019.88
2022-10-09T03:10:54.587Z,1019.96
2022-10-09T03:11:54.605Z,1019.90
2022-10-09T03:12:54.631Z,1019.93
2022-10-09T03:13:54.652Z,1019.87
2022-10-09T03:14:54.679Z,1019.90
2022-10-09T03:15:54.735Z,1019.95
2022-10-09T03:16:54.723Z,1019.90
2022-10-09T03:17:54.744Z,1019.89
2022-10-09T03:18:54.768Z,1019.86
2022-10-09T03:19:54.789Z,1019.89
2022-10-09T03:20:54.814Z,1019.84
2022-10-09T03:21:54.835Z,1019.84
2022-10-09T03:22:54.861Z,1019.87
2022-10-09T03:23:54.880Z,1019.89
2022-10-09T03:24:54.906Z,1019.86
2022-10-09T03:25:54.945Z,1019.84
2022-10-09T03:26:54.951Z,1019.84
2022-10-09T03:27:54.972Z,1019.83
2022-10-09T03:28:54.997Z,1019.88
2022-10-09T03:29:55.019Z,1019.84
2022-10-09T03:30:55.118Z,1019.84
2022-10-09T03:31:55.120Z,1019.86
2022-10-09T03:32:55.088Z,1019.81
2022-10-09T03:33:55.111Z,1019.80
2022-10-09T03:34:55.135Z,1019.77
2022-10-09T03:35:55.155Z,1019.83
2022-10-09T03:36:55.181Z,1019.78
2022-10-09T03:37:55.204Z,1019.84
2022-10-09T03:38:55.224Z,1019.83
2022-10-09T03:39:55.247Z,1019.79
2022-10-09T03:40:55.272Z,1019.78
2022-10-09T03:41:55.310Z,1019.82
2022-10-09T03:42:55.319Z,1019.82
2022-10-09T03:43:55.340Z,1019.79
2022-10-09T03:44:55.366Z,1019.82
2022-10-09T03:45:59.222Z,1019.80
2022-10-09T03:46:55.500Z,1019.81
2022-10-09T03:47:55.430Z,1019.79
2022-10-09T03:48:55.468Z,1019.76
2022-10-09T03:49:55.476Z,1019.79
2022-10-09T03:50:55.500Z,1019.79
2022-10-09T03:51:55.522Z,1019.77
2022-10-09T03:52:55.546Z,1019.73
2022-10-09T03:53:55.569Z,1019.77
2022-10-09T03:54:55.593Z,1019.77
2022-10-09T03:55:55.614Z,1019.82
2022-10-09T03:56:55.639Z,1019.76
2022-10-09T03:57:55.677Z,1019.74
2022-10-09T03:58:55.688Z,1019.75
2022-10-09T03:59:55.706Z,1019.73
2022-10-09T04:00:55.809Z,1019.74
2022-10-09T04:01:55.751Z,1019.68
2022-10-09T04:02:55.815Z,1019.72
2022-10-09T04:03:55.797Z,1019.70
2022-10-09T04:04:55.822Z,1019.72
2022-10-09T04:05:55.843Z,1019.71
2022-10-09T04:06:55.868Z,1019.66
2022-10-09T04:07:55.888Z,1019.65
2022-10-09T04:08:55.913Z,1019.64
2022-10-09T04:09:55.933Z,1019.66
2022-10-09T04:10:55.963Z,1019.66
2022-10-09T04:11:55.980Z,1019.66
2022-10-09T04:12:56.005Z,1019.62
2022-10-09T04:13:56.045Z,1019.65
2022-10-09T04:14:56.051Z,1019.63
2022-10-09T04:15:56.143Z,1019.65
2022-10-09T04:16:56.098Z,1019.69
2022-10-09T04:17:56.121Z,1019.72
2022-10-09T04:18:56.142Z,1019.67
2022-10-09T04:19:56.164Z,1019.67
2022-10-09T04:20:56.189Z,1019.63
2022-10-09T04:21:56.208Z,1019.62
2022-10-09T04:22:56.235Z,1019.67
2022-10-09T04:23:56.255Z,1019.71
2022-10-09T04:24:56.280Z,1019.64
2022-10-09T04:25:56.302Z,1019.62
2022-10-09T04:26:56.325Z,1019.63
2022-10-09T04:27:56.347Z,1019.61
2022-10-09T04:28:56.372Z,1019.64
2022-10-09T04:29:56.410Z,1019.61
2022-10-09T04:30:56.417Z,1019.57
2022-10-09T04:31:56.467Z,1019.59
2022-10-09T04:32:56.463Z,1019.57
2022-10-09T04:33:56.482Z,1019.59
2022-10-09T04:34:56.508Z,1019.60
2022-10-09T04:35:56.528Z,1019.61
2022-10-09T04:36:56.554Z,1019.59
2022-10-09T04:37:56.575Z,1019.55
2022-10-09T04:38:56.599Z,1019.56
2022-10-09T04:39:56.620Z,1019.54
2022-10-09T04:40:56.650Z,1019.60
2022-10-09T04:41:56.667Z,1019.58
2022-10-09T04:42:56.690Z,1019.54
2022-10-09T04:43:56.710Z,1019.58
2022-10-09T04:44:56.736Z,1019.56
2022-10-09T04:45:56.852Z,1019.56
2022-10-09T04:46:56.779Z,1019.54
2022-10-09T04:47:56.802Z,1019.55
2022-10-09T04:48:56.828Z,1019.54
2022-10-09T04:49:56.846Z,1019.51
2022-10-09T04:50:56.872Z,1019.51
2022-10-09T04:51:56.894Z,1019.48
2022-10-09T04:52:56.917Z,1019.47
2022-10-09T04:54:00.474Z,1019.51
2022-10-09T04:55:56.986Z,1019.48
2022-10-09T04:56:57.006Z,1019.43
2022-10-09T04:57:57.030Z,1019.46
2022-10-09T04:58:57.051Z,1019.46
2022-10-09T04:59:57.078Z,1019.45
2022-10-09T05:00:57.161Z,1019.48
2022-10-09T05:01:57.171Z,1019.42
2022-10-09T05:02:57.142Z,1019.50
2022-10-09T05:03:57.168Z,1019.48
2022-10-09T05:04:57.190Z,1019.46
2022-10-09T05:05:57.212Z,1019.49
2022-10-09T05:06:57.235Z,1019.50
2022-10-09T05:07:57.257Z,1019.49
2022-10-09T05:08:57.279Z,1019.47
2022-10-09T05:09:57.308Z,1019.46
2022-10-09T05:10:57.324Z,1019.45
2022-10-09T05:11:57.349Z,1019.47
2022-10-09T05:12:57.369Z,1019.46
2022-10-09T05:13:57.394Z,1019.43
2022-10-09T05:14:57.415Z,1019.46
2022-10-09T05:15:57.481Z,1019.45
2022-10-09T05:17:13.195Z,1019.49
2022-10-09T05:17:57.502Z,1019.47
2022-10-09T05:18:57.505Z,1019.43
2022-10-09T05:19:57.530Z,1019.39
2022-10-09T05:20:57.564Z,1019.35
2022-10-09T05:21:57.574Z,1019.40
2022-10-09T05:22:57.596Z,1019.34
2022-10-09T05:23:57.622Z,1019.38
2022-10-09T05:24:57.641Z,1019.36
2022-10-09T05:25:57.665Z,1019.40
2022-10-09T05:26:57.687Z,1019.40
2022-10-09T05:27:57.710Z,1019.36
2022-10-09T05:28:57.731Z,1019.35
2022-10-09T05:29:57.756Z,1019.36
2022-10-09T05:30:57.780Z,1019.31
2022-10-09T05:31:57.826Z,1019.35
2022-10-09T05:32:57.825Z,1019.34
2022-10-09T05:33:57.864Z,1019.38
2022-10-09T05:34:57.867Z,1019.36
2022-10-09T05:35:57.892Z,1019.37
2022-10-09T05:36:57.913Z,1019.36
2022-10-09T05:37:57.936Z,1019.38
2022-10-09T05:38:57.958Z,1019.38
2022-10-09T05:39:57.984Z,1019.41
2022-10-09T05:40:58.007Z,1019.37
2022-10-09T05:41:58.029Z,1019.39
2022-10-09T05:42:58.048Z,1019.41
2022-10-09T05:43:58.073Z,1019.41
2022-10-09T05:44:58.094Z,1019.43
2022-10-09T05:45:58.170Z,1019.40
2022-10-09T05:46:58.141Z,1019.43
2022-10-09T05:47:58.164Z,1019.44
2022-10-09T05:48:58.185Z,1019.41
2022-10-09T05:49:58.227Z,1019.41
2022-10-09T05:50:58.230Z,1019.39
2022-10-09T05:51:58.254Z,1019.43
2022-10-09T05:52:58.275Z,1019.45
2022-10-09T05:53:58.301Z,1019.43
2022-10-09T05:54:58.320Z,1019.48
2022-10-09T05:56:01.591Z,1019.46
2022-10-09T05:56:58.366Z,1019.50
2022-10-09T05:57:58.390Z,1019.51
2022-10-09T05:58:58.411Z,1019.41
2022-10-09T05:59:58.435Z,1019.45
2022-10-09T06:00:58.473Z,1019.48
2022-10-09T06:01:58.520Z,1019.45
2022-10-09T06:02:58.502Z,1019.46
2022-10-09T06:03:58.525Z,1019.43
2022-10-09T06:04:58.549Z,1019.46
2022-10-09T06:05:58.589Z,1019.44
2022-10-09T06:06:59.812Z,1019.38
2022-10-09T06:07:58.619Z,1019.41
2022-10-09T06:08:59.043Z,1019.44
2022-10-09T06:11:58.911Z,1019.43
2022-10-09T06:14:58.775Z,1019.45
2022-10-09T06:15:58.799Z,1019.43
2022-10-09T06:16:58.955Z,1019.43
2022-10-09T06:17:58.845Z,1019.47
2022-10-09T06:18:58.869Z,1019.41
2022-10-09T06:19:58.891Z,1019.42
2022-10-09T06:20:58.913Z,1019.34
2022-10-09T06:21:58.956Z,1019.33
2022-10-09T06:22:58.958Z,1019.33
2022-10-09T06:23:58.983Z,1019.41
2022-10-09T06:24:59.003Z,1019.40
2022-10-09T06:25:59.027Z,1019.39
2022-10-09T06:26:59.050Z,1019.46
2022-10-09T06:27:59.072Z,1019.38
2022-10-09T06:28:59.097Z,1019.44
2022-10-09T06:29:59.117Z,1019.41
2022-10-09T06:30:59.224Z,1019.45
2022-10-09T06:31:59.164Z,1019.45
2022-10-09T06:32:59.185Z,1019.45
2022-10-09T06:33:59.209Z,1019.44
2022-10-09T06:34:59.231Z,1019.43
2022-10-09T06:36:07.064Z,1019.51
2022-10-09T06:36:59.278Z,1019.49
2022-10-09T06:37:59.317Z,1019.47
2022-10-09T06:38:59.326Z,1019.50
2022-10-09T06:39:59.347Z,1019.50
2022-10-09T06:40:59.370Z,1019.50
2022-10-09T06:41:59.393Z,1019.48
2022-10-09T06:42:59.412Z,1019.44
2022-10-09T06:43:59.439Z,1019.42
2022-10-09T06:44:59.461Z,1019.42
2022-10-09T06:45:59.522Z,1019.44
2022-10-09T06:46:59.505Z,1019.49
2022-10-09T06:47:59.530Z,1019.51
2022-10-09T06:48:59.552Z,1019.52
2022-10-09T06:49:59.577Z,1019.50
2022-10-09T06:50:59.597Z,1019.50
2022-10-09T06:51:59.624Z,1019.51
2022-10-09T06:52:59.645Z,1019.46
2022-10-09T06:53:59.719Z,1019.52
2022-10-09T06:54:59.691Z,1019.50
2022-10-09T06:55:59.715Z,1019.45
2022-10-09T06:56:59.737Z,1019.51
2022-10-09T06:57:59.763Z,1019.48
2022-10-09T06:58:59.784Z,1019.50
2022-10-09T06:59:59.808Z,1019.45
2022-10-09T07:00:59.830Z,1019.48
2022-10-09T07:02:00.091Z,1019.48
2022-10-09T07:02:59.959Z,1019.46
2022-10-09T07:03:59.901Z,1019.55
2022-10-09T07:04:59.923Z,1019.52
2022-10-09T07:05:59.946Z,1019.55
2022-10-09T07:06:59.969Z,1019.59
2022-10-09T07:07:59.995Z,1019.60
2022-10-09T07:09:00.015Z,1019.53
2022-10-09T07:10:00.063Z,1019.58
2022-10-09T07:11:00.070Z,1019.58
2022-10-09T07:12:00.087Z,1019.56
2022-10-09T07:13:00.108Z,1019.58
2022-10-09T07:14:00.283Z,1019.62
2022-10-09T07:15:00.156Z,1019.60
2022-10-09T07:16:04.009Z,1019.57
2022-10-09T07:17:00.201Z,1019.62
2022-10-09T07:18:00.224Z,1019.55
2022-10-09T07:19:00.248Z,1019.57
2022-10-09T07:20:00.272Z,1019.55
2022-10-09T07:21:00.295Z,1019.58
2022-10-09T07:22:00.320Z,1019.58
2022-10-09T07:23:00.341Z,1019.59
2022-10-09T07:24:00.370Z,1019.56
2022-10-09T07:25:00.395Z,1019.53
2022-10-09T07:26:00.431Z,1019.58
2022-10-09T07:27:00.436Z,1019.54
2022-10-09T07:28:00.460Z,1019.48
2022-10-09T07:29:00.487Z,1019.50
2022-10-09T07:30:00.507Z,1019.50
2022-10-09T07:31:00.587Z,1019.50
2022-10-09T07:33:00.577Z,1019.47
2022-10-09T07:34:00.609Z,1019.48
2022-10-09T07:35:00.626Z,1019.44
2022-10-09T07:36:00.651Z,1019.45
2022-10-09T07:37:00.672Z,1019.47
2022-10-09T07:38:00.697Z,1019.48
2022-10-09T07:39:00.719Z,1019.48
2022-10-09T07:40:00.743Z,1019.46
2022-10-09T07:41:00.767Z,1019.42
2022-10-09T07:42:00.809Z,1019.42
2022-10-09T07:43:00.813Z,1019.41
2022-10-09T07:44:00.840Z,1019.42
2022-10-09T07:45:00.862Z,1019.46
2022-10-09T07:46:00.954Z,1019.44
2022-10-09T07:47:00.909Z,1019.39
2022-10-09T07:48:00.936Z,1019.40
2022-10-09T07:49:00.960Z,1019.41
2022-10-09T07:50:00.983Z,1019.42
2022-10-09T07:51:01.004Z,1019.39
2022-10-09T07:52:01.032Z,1019.42
2022-10-09T07:53:01.054Z,1019.42
2022-10-09T07:54:01.078Z,1019.43
2022-10-09T07:55:01.140Z,1019.41
2022-10-09T07:56:01.127Z,1019.45
2022-10-09T07:57:01.150Z,1019.47
2022-10-09T07:58:01.246Z,1019.46
2022-10-09T07:59:01.198Z,1019.43
2022-10-09T08:00:01.233Z,1019.48
2022-10-09T08:01:01.323Z,1019.45
2022-10-09T08:02:01.337Z,1019.52
2022-10-09T08:03:01.343Z,1019.51
2022-10-09T08:04:01.321Z,1019.52
2022-10-09T08:05:01.350Z,1019.47
2022-10-09T08:06:01.368Z,1019.48
2022-10-09T08:07:01.392Z,1019.54
2022-10-09T08:08:01.419Z,1019.54
2022-10-09T08:09:01.442Z,1019.46
2022-10-09T08:10:01.478Z,1019.51
2022-10-09T08:11:01.490Z,1019.47
2022-10-09T08:12:01.517Z,1019.48
2022-10-09T08:13:01.542Z,1019.46
2022-10-09T08:14:01.587Z,1019.52
2022-10-09T08:15:01.589Z,1019.42
2022-10-09T08:16:01.663Z,1019.41
2022-10-09T08:17:01.640Z,1019.40
2022-10-09T08:18:01.665Z,1019.41
2022-10-09T08:19:01.699Z,1019.38
2022-10-09T08:20:01.715Z,1019.40
2022-10-09T08:21:01.738Z,1019.40
2022-10-09T08:22:03.618Z,1019.43
2022-10-09T08:23:01.786Z,1019.42
2022-10-09T08:24:01.824Z,1019.40
2022-10-09T08:25:01.838Z,1019.37
2022-10-09T08:26:01.865Z,1019.40
2022-10-09T08:27:01.890Z,1019.40
2022-10-09T08:28:01.915Z,1019.34
2022-10-09T08:29:01.942Z,1019.36
2022-10-09T08:30:01.984Z,1019.32
2022-10-09T08:31:02.079Z,1019.34
2022-10-09T08:32:02.021Z,1019.34
2022-10-09T08:33:02.042Z,1019.35
2022-10-09T08:34:02.066Z,1019.28
2022-10-09T08:35:02.090Z,1019.30
2022-10-09T08:36:02.117Z,1019.29
2022-10-09T08:37:02.139Z,1019.30
2022-10-09T08:38:02.171Z,1019.22
2022-10-09T08:39:02.191Z,1019.21
2022-10-09T08:40:02.218Z,1019.23
2022-10-09T08:41:02.241Z,1019.24
2022-10-09T08:42:02.291Z,1019.20
2022-10-09T08:43:02.292Z,1019.21
2022-10-09T08:44:02.325Z,1019.16
2022-10-09T08:45:02.345Z,1019.16
2022-10-09T08:46:02.444Z,1019.19
2022-10-09T08:47:02.393Z,1019.16
2022-10-09T08:48:02.424Z,1019.17
2022-10-09T08:49:02.446Z,1019.14
2022-10-09T08:50:02.474Z,1019.16
2022-10-09T08:51:02.498Z,1019.09
2022-10-09T08:52:02.530Z,1019.08
2022-10-09T08:53:02.549Z,1019.14
2022-10-09T08:54:02.576Z,1019.05
2022-10-09T08:55:02.622Z,1019.05
2022-10-09T08:56:02.629Z,1019.06
2022-10-09T08:57:02.652Z,1019.04
2022-10-09T08:58:02.683Z,1019.05
2022-10-09T08:59:02.706Z,1019.05
2022-10-09T09:00:02.732Z,1019.06
2022-10-09T09:01:02.757Z,1019.01
2022-10-09T09:02:02.858Z,1019.01
2022-10-09T09:03:02.897Z,1019.06
2022-10-09T09:04:02.834Z,1018.96
2022-10-09T09:05:02.859Z,1018.96
2022-10-09T09:06:02.887Z,1019.00
2022-10-09T09:07:02.912Z,1018.92
2022-10-09T09:08:02.955Z,1018.90
2022-10-09T09:09:02.965Z,1018.94
2022-10-09T09:10:02.993Z,1018.94
2022-10-09T09:11:03.017Z,1018.87
2022-10-09T09:12:03.044Z,1018.92
2022-10-09T09:13:03.070Z,1018.87
2022-10-09T09:14:03.096Z,1018.87
2022-10-09T09:15:03.121Z,1018.87
2022-10-09T09:16:03.188Z,1018.84
2022-10-09T09:17:03.173Z,1018.85
2022-10-09T09:18:03.222Z,1018.79
2022-10-09T09:19:03.226Z,1018.86
2022-10-09T09:20:03.257Z,1018.84
2022-10-09T09:21:03.282Z,1018.84
2022-10-09T09:22:03.308Z,1018.85
2022-10-09T09:23:03.333Z,1018.81
2022-10-09T09:24:03.362Z,1018.78
2022-10-09T09:25:03.388Z,1018.79
2022-10-09T09:26:03.415Z,1018.72
2022-10-09T09:27:03.445Z,1018.74
2022-10-09T09:28:03.515Z,1018.76
2022-10-09T09:29:03.588Z,1018.74
2022-10-09T09:30:03.525Z,1018.70
2022-10-09T09:31:03.601Z,1018.70
2022-10-09T09:32:03.629Z,1018.62
2022-10-09T09:33:03.608Z,1018.65
2022-10-09T09:34:03.647Z,1018.61
2022-10-09T09:35:03.658Z,1018.58
2022-10-09T09:36:03.692Z,1018.60
2022-10-09T09:37:03.712Z,1018.58
2022-10-09T09:38:03.747Z,1018.58
2022-10-09T09:41:03.822Z,1018.61
2022-10-09T09:42:03.865Z,1018.57
2022-10-09T09:43:05.043Z,1018.65
2022-10-09T09:44:03.906Z,1018.59
2022-10-09T09:45:03.942Z,1018.54
2022-10-09T09:46:03.971Z,1018.58
2022-10-09T09:47:03.991Z,1018.52
2022-10-09T09:48:04.015Z,1018.53
2022-10-09T09:49:09.214Z,1018.50
2022-10-09T09:50:04.099Z,1018.52
2022-10-09T09:51:26.935Z,1018.48
2022-10-09T09:52:04.122Z,1018.51
2022-10-09T09:53:04.146Z,1018.45
2022-10-09T09:54:04.180Z,1018.43
2022-10-09T09:55:04.200Z,1018.39
2022-10-09T09:56:04.229Z,1018.40
2022-10-09T09:57:14.911Z,1018.34
2022-10-09T09:58:04.286Z,1018.29
2022-10-09T09:59:04.310Z,1018.30
2022-10-09T10:00:04.340Z,1018.22
2022-10-09T10:01:04.418Z,1018.25
2022-10-09T10:02:04.436Z,1018.20
2022-10-09T10:03:04.417Z,1018.19
2022-10-09T10:04:04.447Z,1018.18
2022-10-09T10:05:04.474Z,1018.14
2022-10-09T10:06:04.521Z,1018.14
2022-10-09T10:07:04.527Z,1018.16
2022-10-09T10:08:04.558Z,1018.08
2022-10-09T10:09:04.583Z,1018.12
2022-10-09T10:10:04.610Z,1018.12
2022-10-09T10:11:04.687Z,1018.09
2022-10-09T10:12:04.664Z,1018.13
2022-10-09T10:13:04.692Z,1018.07
2022-10-09T10:14:04.721Z,1018.04
2022-10-09T10:15:04.747Z,1018.02
2022-10-09T10:16:04.807Z,1018.03
2022-10-09T10:17:04.800Z,1017.98
2022-10-09T10:18:04.830Z,1017.99
2022-10-09T10:19:04.855Z,1018.04
2022-10-09T10:20:04.885Z,1017.99
2022-10-09T10:21:04.910Z,1018.03
2022-10-09T10:22:04.957Z,1018.03
2022-10-09T10:23:04.968Z,1017.99
2022-10-09T10:24:04.998Z,1017.95
2022-10-09T10:25:09.645Z,1017.89
2022-10-09T10:26:05.049Z,1017.92
2022-10-09T10:27:47.915Z,1017.87
2022-10-09T10:28:47.654Z,1017.90
2022-10-09T10:29:47.682Z,1017.86
2022-10-09T10:30:47.709Z,1017.90
2022-10-09T10:31:47.737Z,1017.84
2022-10-09T10:32:47.767Z,1017.82
2022-10-09T10:33:47.794Z,1017.76
2022-10-09T10:34:47.819Z,1017.80
2022-10-09T10:35:47.848Z,1017.80
2022-10-09T10:36:47.875Z,1017.72
2022-10-09T10:37:48.185Z,1017.72
2022-10-09T10:38:47.931Z,1017.71
2022-10-09T10:39:47.957Z,1017.71
2022-10-09T10:40:50.611Z,1017.70
2022-10-09T10:41:48.014Z,1017.64
2022-10-09T10:42:48.040Z,1017.66
2022-10-09T10:43:48.068Z,1017.66
2022-10-09T10:44:48.097Z,1017.62
2022-10-09T10:45:48.124Z,1017.62
2022-10-09T10:46:48.201Z,1017.57
2022-10-09T10:47:48.538Z,1017.59
2022-10-09T10:48:48.209Z,1017.59
2022-10-09T10:49:48.234Z,1017.58
2022-10-09T10:50:48.262Z,1017.53
2022-10-09T10:51:48.289Z,1017.49
2022-10-09T10:52:48.318Z,1017.53
2022-10-09T10:53:48.362Z,1017.54
2022-10-09T10:54:48.373Z,1017.51
2022-10-09T10:55:48.401Z,1017.46
2022-10-09T10:56:48.431Z,1017.45
2022-10-09T10:57:51.667Z,1017.42
2022-10-09T11:01:15.671Z,1017.39
2022-10-09T11:02:14.393Z,1017.39
2022-10-09T11:03:14.499Z,1017.35
2022-10-09T11:04:14.447Z,1017.34
2022-10-09T11:05:14.477Z,1017.29
2022-10-09T11:06:14.505Z,1017.34
2022-10-09T11:07:14.531Z,1017.27
2022-10-09T11:08:14.561Z,1017.27
2022-10-09T11:09:14.607Z,1017.25
2022-10-09T11:10:14.618Z,1017.21
2022-10-09T11:11:14.644Z,1017.21
2022-10-09T11:12:19.843Z,1017.20
2022-10-09T11:13:14.700Z,1017.19
2022-10-09T11:14:19.936Z,1017.16
2022-10-09T11:15:14.759Z,1017.11
2022-10-09T11:16:14.927Z,1017.03
2022-10-09T11:17:14.816Z,1017.04
2022-10-09T11:18:14.842Z,1017.04
2022-10-09T11:19:14.869Z,1017.01
2022-10-09T11:20:14.897Z,1017.00
2022-10-09T11:21:14.924Z,1016.95
2022-10-09T11:22:14.958Z,1016.96
2022-10-09T11:23:14.981Z,1016.92
2022-10-09T11:24:15.013Z,1016.93
2022-10-09T11:25:15.059Z,1016.91
2022-10-09T11:26:15.072Z,1016.86
2022-10-09T11:27:15.095Z,1016.84
2022-10-09T11:28:15.202Z,1016.84
2022-10-09T11:29:15.158Z,1016.77
2022-10-09T11:30:15.282Z,1016.80
2022-10-09T11:31:15.311Z,1016.74
2022-10-09T11:32:15.236Z,1016.75
2022-10-09T11:33:15.264Z,1016.70
2022-10-09T11:34:15.294Z,1016.70
2022-10-09T11:35:15.321Z,1016.67
2022-10-09T11:36:15.351Z,1016.63
2022-10-09T11:37:15.377Z,1016.66
2022-10-09T11:38:15.407Z,1016.61
2022-10-09T11:39:15.437Z,1016.59
2022-10-09T11:40:15.571Z,1016.54
2022-10-09T11:41:15.509Z,1016.51
2022-10-09T11:42:15.518Z,1016.49
2022-10-09T11:43:15.545Z,1016.47
2022-10-09T11:44:15.575Z,1016.46
2022-10-09T11:45:15.606Z,1016.42
2022-10-09T11:46:15.705Z,1016.47
2022-10-09T11:47:15.662Z,1016.36
2022-10-09T11:48:15.690Z,1016.37
2022-10-09T11:49:15.717Z,1016.44
2022-10-09T11:50:15.749Z,1016.45
2022-10-09T11:51:15.774Z,1016.36
2022-10-09T11:52:15.803Z,1016.34
2022-10-09T11:53:15.831Z,1016.31
2022-10-09T11:54:15.863Z,1016.32
2022-10-09T11:55:15.888Z,1016.26
2022-10-09T11:56:15.916Z,1016.23
2022-10-09T11:57:15.963Z,1016.23
2022-10-09T11:58:15.980Z,1016.18
2022-10-09T11:59:16.003Z,1016.19
2022-10-09T12:00:16.032Z,1016.15
2022-10-09T12:01:16.095Z,1016.13
2022-10-09T12:02:16.166Z,1016.11
2022-10-09T12:03:16.114Z,1016.10
2022-10-09T12:04:20.862Z,1016.12
2022-10-09T12:05:16.173Z,1016.09
2022-10-09T12:06:16.204Z,1016.05
2022-10-09T12:07:16.230Z,1016.06
2022-10-09T12:08:19.222Z,1016.01
2022-10-09T12:09:16.287Z,1015.96
2022-10-09T12:10:16.317Z,1015.97
2022-10-09T12:11:16.344Z,1015.93
2022-10-09T12:12:16.373Z,1015.91
2022-10-09T12:13:16.507Z,1015.93
2022-10-09T12:14:20.154Z,1015.92
2022-10-09T12:15:16.458Z,1015.87
2022-10-09T12:16:16.511Z,1015.83
2022-10-09T12:17:16.514Z,1015.83
2022-10-09T12:18:16.547Z,1015.75